Wetterstation Vordersexau
Wetterdaten: Woche 01.08.16 - 07.08.16 (KW31)
Datum Zeit Temp. A. Feuchte A. Luftdruck Regen Wind Richtung Taupunkt Windchill Windben
02.08.2016 03:00 14,4 C 80 % 1015,9 hPa 2,1 l/m 0,0 km/h O-SO 11,0 C 14,4 C 0,0 km/h
02.08.2016 04:00 14,6 C 80 % 1016,1 hPa 0,0 l/m 0,0 km/h O-SO 11,2 C 14,6 C 0,0 km/h
02.08.2016 05:00 14,8 C 80 % 1016,3 hPa 0,0 l/m 0,0 km/h O-SO 11,4 C 14,8 C 0,0 km/h
02.08.2016 06:00 14,6 C 82 % 1016,3 hPa 0,0 l/m 0,0 km/h O-SO 11,6 C 14,6 C 0,0 km/h
02.08.2016 07:00 15,6 C 83 % 1016,7 hPa 0,0 l/m 0,0 km/h SO 12,7 C 15,6 C 0,0 km/h
02.08.2016 08:00 18,2 C 82 % 1016,6 hPa 0,0 l/m 0,0 km/h O-SO 15,1 C 18,2 C 0,0 km/h
02.08.2016 09:00 20,1 C 79 % 1016,5 hPa 0,0 l/m 0,0 km/h W 16,3 C 20,1 C 0,0 km/h
02.08.2016 10:00 22,1 C 68 % 1016,3 hPa 0,0 l/m 6,5 km/h SW 15,9 C 22,1 C 3,6 km/h
02.08.2016 11:00 23,5 C 54 % 1015,9 hPa 0,0 l/m 6,5 km/h SW 13,6 C 23,5 C 3,6 km/h
02.08.2016 12:00 21,9 C 59 % 1015,9 hPa 0,0 l/m 22,0 km/h W 13,5 C 18,4 C 12,2 km/h
02.08.2016 13:00 22,2 C 58 % 1015,8 hPa 0,0 l/m 10,4 km/h W 13,5 C 21,0 C 5,8 km/h
02.08.2016 14:00 21,8 C 58 % 1015,8 hPa 0,0 l/m 13,6 km/h S 13,2 C 19,7 C 7,6 km/h
02.08.2016 15:00 21,3 C 61 % 1015,9 hPa 0,0 l/m 0,0 km/h W-SW 13,5 C 21,3 C 0,0 km/h
02.08.2016 16:00 19,9 C 69 % 1016,0 hPa 0,5 l/m 0,0 km/h O-SO 14,0 C 19,9 C 0,0 km/h
02.08.2016 17:00 18,5 C 78 % 1016,7 hPa 1,6 l/m 0,0 km/h S-SO 14,6 C 18,5 C 0,0 km/h
02.08.2016 18:00 16,9 C 83 % 1016,9 hPa 1,6 l/m 9,1 km/h SO 14,0 C 15,6 C 5,0 km/h
02.08.2016 19:00 17,3 C 83 % 1017,0 hPa 0,5 l/m 0,0 km/h O-NO 14,4 C 17,3 C 0,0 km/h
02.08.2016 20:00 16,8 C 83 % 1016,8 hPa 0,0 l/m 0,0 km/h O-SO 13,9 C 16,8 C 0,0 km/h
02.08.2016 21:00 16,4 C 83 % 1016,7 hPa 0,0 l/m 0,0 km/h NO 13,5 C 16,4 C 0,0 km/h
02.08.2016 22:00 15,8 C 83 % 1016,5 hPa 0,0 l/m 0,0 km/h NO 12,9 C 15,8 C 0,0 km/h
02.08.2016 23:00 14,9 C 83 % 1016,2 hPa 0,0 l/m 0,0 km/h O-NO 12,0 C 14,9 C 0,0 km/h
03.08.2016 00:00 14,6 C 83 % 1016,3 hPa 0,0 l/m 0,0 km/h O-NO 11,7 C 14,6 C 0,0 km/h
03.08.2016 01:00 14,1 C 82 % 1016,3 hPa 0,0 l/m 0,0 km/h O-SO 11,1 C 14,1 C 0,0 km/h
03.08.2016 02:00 14,5 C 81 % 1015,8 hPa 0,0 l/m 0,0 km/h O-SO 11,3 C 14,5 C 0,0 km/h
03.08.2016 03:00 14,8 C 80 % 1015,5 hPa 0,0 l/m 0,0 km/h O-SO 11,4 C 14,8 C 0,0 km/h
03.08.2016 04:00 14,9 C 79 % 1015,3 hPa 0,0 l/m 0,0 km/h O-SO 11,3 C 14,9 C 0,0 km/h
03.08.2016 05:00 14,9 C 79 % 1015,1 hPa 0,0 l/m 0,0 km/h O-SO 11,3 C 14,9 C 0,0 km/h
03.08.2016 06:00 15,3 C 78 % 1014,9 hPa 0,0 l/m 0,0 km/h O-SO 11,5 C 15,3 C 0,0 km/h
03.08.2016 07:00 20,3 C 50 % 1014,4 hPa 0,0 l/m 0,0 km/h W-SW 9,5 C 20,3 C 0,0 km/h
03.08.2016 08:00 20,5 C 83 % 1014,4 hPa 0,0 l/m 0,0 km/h W-SW 17,5 C 20,5 C 0,0 km/h
03.08.2016 09:00 23,4 C 71 % 1014,1 hPa 0,0 l/m 13,0 km/h W-SW 17,8 C 21,7 C 7,2 km/h
03.08.2016 10:00 24,8 C 64 % 1014,0 hPa 0,0 l/m 13,0 km/h W-SW 17,5 C 23,4 C 7,2 km/h
03.08.2016 11:00 27,1 C 55 % 1013,7 hPa 0,0 l/m 24,0 km/h SW 17,3 C 25,1 C 13,3 km/h
03.08.2016 12:00 26,8 C 57 % 1013,6 hPa 0,0 l/m 2,6 km/h S-SW 17,6 C 26,8 C 1,4 km/h
03.08.2016 13:00 28,1 C 52 % 1013,2 hPa 0,0 l/m 1,9 km/h W 17,3 C 28,1 C 1,1 km/h
03.08.2016 14:00 29,2 C 46 % 1013,1 hPa 0,0 l/m 3,2 km/h W-SW 16,4 C 29,2 C 1,8 km/h
03.08.2016 15:00 30,4 C 44 % 1012,4 hPa 0,0 l/m 24,0 km/h W 16,7 C 29,5 C 13,3 km/h
03.08.2016 16:00 30,9 C 40 % 1012,0 hPa 0,0 l/m 1,9 km/h W 15,7 C 30,9 C 1,1 km/h
03.08.2016 17:00 28,4 C 43 % 1011,8 hPa 0,0 l/m 14,9 km/h S-SW 14,6 C 27,4 C 8,3 km/h
03.08.2016 18:00 31,0 C 36 % 1011,6 hPa 0,0 l/m 7,1 km/h S 14,2 C 31,0 C 4,0 km/h
03.08.2016 19:00 26,1 C 45 % 1011,6 hPa 0,0 l/m 6,5 km/h S-SW 13,2 C 26,1 C 3,6 km/h
03.08.2016 20:00 21,1 C 62 % 1011,9 hPa 0,0 l/m 0,0 km/h NW 13,5 C 21,1 C 0,0 km/h
03.08.2016 21:00 18,5 C 69 % 1012,4 hPa 0,0 l/m 0,0 km/h N-NO 12,7 C 18,5 C 0,0 km/h
03.08.2016 22:00 16,9 C 74 % 1012,4 hPa 0,0 l/m 0,0 km/h O 12,2 C 16,9 C 0,0 km/h
03.08.2016 23:00 15,6 C 78 % 1012,3 hPa 0,0 l/m 0,0 km/h SO 11,8 C 15,6 C 0,0 km/h
04.08.2016 00:00 15,1 C 80 % 1012,3 hPa 0,0 l/m 0,0 km/h SO 11,7 C 15,1 C 0,0 km/h
04.08.2016 01:00 15,4 C 81 % 1011,8 hPa 0,0 l/m 0,0 km/h SO 12,2 C 15,4 C 0,0 km/h
04.08.2016 02:00 14,7 C 82 % 1011,4 hPa 0,0 l/m 0,0 km/h O 11,7 C 14,7 C 0,0 km/h
04.08.2016 03:00 13,9 C 83 % 1011,2 hPa 0,0 l/m 0,0 km/h O-SO 11,1 C 13,9 C 0,0 km/h
04.08.2016 04:00 13,5 C 83 % 1011,3 hPa 0,0 l/m 0,0 km/h SO 10,7 C 13,5 C 0,0 km/h
04.08.2016 05:00 13,6 C 84 % 1011,2 hPa 0,0 l/m 0,0 km/h O-SO 10,9 C 13,6 C 0,0 km/h
04.08.2016 06:00 14,5 C 83 % 1010,9 hPa 0,0 l/m 0,0 km/h SO 11,6 C 14,5 C 0,0 km/h
04.08.2016 07:00 19,4 C 81 % 1011,0 hPa 0,0 l/m 0,0 km/h SO 16,1 C 19,4 C 0,0 km/h
04.08.2016 08:00 24,9 C 61 % 1010,9 hPa 0,0 l/m 0,0 km/h O-SO 16,8 C 24,9 C 0,0 km/h
04.08.2016 09:00 28,0 C 54 % 1010,9 hPa 0,0 l/m 0,0 km/h W 17,8 C 28,0 C 0,0 km/h
04.08.2016 10:00 29,7 C 47 % 1011,1 hPa 0,0 l/m 1,9 km/h W-NW 17,2 C 29,7 C 1,1 km/h
04.08.2016 11:00 29,2 C 46 % 1010,9 hPa 0,0 l/m 0,0 km/h W-NW 16,4 C 29,2 C 0,0 km/h
04.08.2016 12:00 29,0 C 48 % 1010,5 hPa 0,0 l/m 2,6 km/h NW 16,9 C 29,0 C 1,4 km/h
04.08.2016 13:00 30,3 C 43 % 1009,6 hPa 0,0 l/m 0,0 km/h N 16,3 C 30,3 C 0,0 km/h
04.08.2016 14:00 28,1 C 49 % 1009,7 hPa 0,0 l/m 11,7 km/h N 16,4 C 27,4 C 6,5 km/h
04.08.2016 15:00 24,1 C 57 % 1009,3 hPa 0,0 l/m 0,0 km/h N-NW 15,0 C 24,1 C 0,0 km/h
04.08.2016 16:00 22,4 C 67 % 1009,6 hPa 0,0 l/m 0,0 km/h NW 16,0 C 22,4 C 0,0 km/h
04.08.2016 17:00 19,4 C 78 % 1010,9 hPa 0,0 l/m 0,0 km/h W-NW 15,5 C 19,4 C 0,0 km/h
04.08.2016 18:00 17,7 C 83 % 1012,1 hPa 3,1 l/m 2,6 km/h S-SO 14,8 C 17,7 C 1,4 km/h
04.08.2016 19:00 15,9 C 83 % 1012,1 hPa 3,1 l/m 0,0 km/h SO 13,0 C 15,9 C 0,0 km/h
04.08.2016 20:00 15,9 C 81 % 1012,4 hPa 2,1 l/m 0,0 km/h SO 12,6 C 15,9 C 0,0 km/h
04.08.2016 21:00 15,7 C 81 % 1012,2 hPa 1,6 l/m 0,0 km/h O-SO 12,4 C 15,7 C 0,0 km/h
04.08.2016 22:00 15,5 C 81 % 1012,0 hPa 0,5 l/m 0,0 km/h O-SO 12,3 C 15,5 C 0,0 km/h
04.08.2016 23:00 15,7 C 81 % 1012,3 hPa 0,5 l/m 0,0 km/h S-SW 12,4 C 15,7 C 0,0 km/h
05.08.2016 00:00 15,8 C 80 % 1012,5 hPa 0,0 l/m 0,0 km/h S-SW 12,4 C 15,8 C 0,0 km/h
05.08.2016 01:00 14,9 C 80 % 1012,8 hPa 1,0 l/m 0,0 km/h N 11,5 C 14,9 C 0,0 km/h
05.08.2016 02:00 14,5 C 81 % 1013,5 hPa 0,5 l/m 0,0 km/h N-NW 11,3 C 14,5 C 0,0 km/h
05.08.2016 03:00 14,6 C 80 % 1013,6 hPa 0,0 l/m 0,0 km/h N-NW 11,2 C 14,6 C 0,0 km/h
05.08.2016 04:00 14,5 C 80 % 1013,5 hPa 0,0 l/m 0,0 km/h N-NW 11,1 C 14,5 C 0,0 km/h
05.08.2016 05:00 14,2 C 80 % 1014,3 hPa 0,0 l/m 0,0 km/h N-NW 10,8 C 14,2 C 0,0 km/h
05.08.2016 06:00 13,9 C 80 % 1014,7 hPa 0,0 l/m 0,0 km/h N-NW 10,5 C 13,9 C 0,0 km/h
05.08.2016 07:00 14,5 C 79 % 1015,4 hPa 0,0 l/m 0,0 km/h SW 10,9 C 14,5 C 0,0 km/h
05.08.2016 08:00 15,4 C 79 % 1016,2 hPa 0,0 l/m 0,0 km/h SW 11,8 C 15,4 C 0,0 km/h
05.08.2016 09:00 15,8 C 83 % 1016,8 hPa 0,0 l/m 7,8 km/h SW 12,9 C 15,0 C 4,3 km/h
05.08.2016 10:00 17,8 C 83 % 1017,0 hPa 0,0 l/m 0,0 km/h W 14,9 C 17,8 C 0,0 km/h
05.08.2016 11:00 20,9 C 71 % 1017,5 hPa 0,0 l/m 0,0 km/h W-NW 15,4 C 20,9 C 0,0 km/h
05.08.2016 12:00 19,8 C 70 % 1017,8 hPa 0,0 l/m 13,0 km/h S 14,2 C 17,5 C 7,2 km/h
05.08.2016 13:00 18,8 C 81 % 1018,2 hPa 1,0 l/m 20,1 km/h S 15,5 C 14,6 C 11,2 km/h
05.08.2016 14:00 23,5 C 67 % 1018,1 hPa 0,0 l/m 8,4 km/h W 17,0 C 22,9 C 4,7 km/h
05.08.2016 15:00 19,6 C 74 % 1018,3 hPa 0,0 l/m 0,0 km/h SO 14,8 C 19,6 C 0,0 km/h
05.08.2016 16:00 25,5 C 57 % 1018,3 hPa 0,0 l/m 1,3 km/h W-NW 16,3 C 25,5 C 0,7 km/h
05.08.2016 17:00 18,8 C 71 % 1018,7 hPa 0,0 l/m 1,3 km/h SO 13,4 C 18,8 C 0,7 km/h
05.08.2016 18:00 20,9 C 68 % 1019,0 hPa 0,0 l/m 0,0 km/h SW 14,8 C 20,9 C 0,0 km/h
05.08.2016 19:00 19,1 C 72 % 1019,3 hPa 0,0 l/m 0,0 km/h S 13,9 C 19,1 C 0,0 km/h
05.08.2016 20:00 16,8 C 79 % 1019,9 hPa 0,0 l/m 0,0 km/h N-NO 13,1 C 16,8 C 0,0 km/h
05.08.2016 21:00 15,2 C 83 % 1020,8 hPa 0,0 l/m 0,0 km/h N-NO 12,3 C 15,2 C 0,0 km/h
05.08.2016 22:00 14,4 C 83 % 1021,3 hPa 0,0 l/m 0,0 km/h N-NO 11,5 C 14,4 C 0,0 km/h
05.08.2016 23:00 13,0 C 84 % 1021,7 hPa 0,0 l/m 0,0 km/h SO 10,4 C 13,0 C 0,0 km/h
06.08.2016 00:00 12,6 C 84 % 1021,9 hPa 0,0 l/m 0,0 km/h SO 10,0 C 12,6 C 0,0 km/h
06.08.2016 01:00 12,1 C 84 % 1021,9 hPa 0,0 l/m 0,0 km/h SO 9,5 C 12,1 C 0,0 km/h
06.08.2016 02:00 12,0 C 83 % 1022,1 hPa 0,0 l/m 0,0 km/h O-SO 9,2 C 12,0 C 0,0 km/h
06.08.2016 03:00 11,8 C 82 % 1022,1 hPa 0,0 l/m 0,0 km/h O-SO 8,8 C 11,8 C 0,0 km/h
06.08.2016 04:00 11,1 C 82 % 1022,2 hPa 0,0 l/m 0,0 km/h O-SO 8,1 C 11,1 C 0,0 km/h
06.08.2016 05:00 10,7 C 82 % 1022,9 hPa 0,0 l/m 0,0 km/h SO 7,8 C 10,7 C 0,0 km/h
06.08.2016 06:00 11,3 C 81 % 1023,0 hPa 0,0 l/m 0,0 km/h SO 8,2 C 11,3 C 0,0 km/h
06.08.2016 07:00 15,1 C 56 % 1023,5 hPa 0,0 l/m 0,0 km/h SO 6,4 C 15,1 C 0,0 km/h
06.08.2016 08:00 19,8 C 81 % 1023,8 hPa 0,0 l/m 0,0 km/h W-SW 16,4 C 19,8 C 0,0 km/h
06.08.2016 09:00 24,5 C 62 % 1024,1 hPa 0,0 l/m 0,0 km/h W 16,7 C 24,5 C 0,0 km/h
06.08.2016 10:00 25,4 C 57 % 1024,2 hPa 0,0 l/m 0,0 km/h N 16,2 C 25,4 C 0,0 km/h
06.08.2016 11:00 25,5 C 53 % 1024,1 hPa 0,0 l/m 1,9 km/h N-NO 15,2 C 25,5 C 1,1 km/h
06.08.2016 12:00 26,8 C 52 % 1024,0 hPa 0,0 l/m 0,0 km/h W 16,1 C 26,8 C 0,0 km/h
06.08.2016 13:00 27,5 C 46 % 1024,0 hPa 0,0 l/m 13,6 km/h W-NW 14,8 C 26,5 C 7,6 km/h
06.08.2016 14:00 28,5 C 43 % 1023,8 hPa 0,0 l/m 11,7 km/h N 14,7 C 27,8 C 6,5 km/h
06.08.2016 15:00 28,2 C 42 % 1023,7 hPa 0,0 l/m 0,0 km/h N-NW 14,0 C 28,2 C 0,0 km/h
06.08.2016 16:00 30,5 C 37 % 1023,6 hPa 0,0 l/m 0,0 km/h W 14,1 C 30,5 C 0,0 km/h
06.08.2016 17:00 30,6 C 38 % 1023,8 hPa 0,0 l/m 1,9 km/h N 14,6 C 30,6 C 1,1 km/h
06.08.2016 18:00 27,1 C 45 % 1024,1 hPa 0,0 l/m 0,0 km/h N 14,1 C 27,1 C 0,0 km/h
06.08.2016 19:00 23,9 C 48 % 1024,4 hPa 0,0 l/m 0,0 km/h N 12,2 C 23,9 C 0,0 km/h
06.08.2016 20:00 19,1 C 62 % 1024,8 hPa 0,0 l/m 0,0 km/h O-SO 11,6 C 19,1 C 0,0 km/h
06.08.2016 21:00 16,2 C 72 % 1025,6 hPa 0,0 l/m 0,0 km/h O-SO 11,1 C 16,2 C 0,0 km/h
06.08.2016 22:00 15,0 C 76 % 1025,8 hPa 0,0 l/m 0,0 km/h O-SO 10,8 C 15,0 C 0,0 km/h
06.08.2016 23:00 14,2 C 80 % 1026,1 hPa 0,0 l/m 0,0 km/h O-SO 10,8 C 14,2 C 0,0 km/h
07.08.2016 00:00 13,6 C 82 % 1026,5 hPa 0,0 l/m 0,0 km/h O 10,6 C 13,6 C 0,0 km/h
07.08.2016 01:00 13,1 C 83 % 1026,5 hPa 0,0 l/m 0,0 km/h O 10,3 C 13,1 C 0,0 km/h
07.08.2016 02:00 12,4 C 83 % 1026,1 hPa 0,0 l/m 0,0 km/h O-NO 9,6 C 12,4 C 0,0 km/h
07.08.2016 03:00 12,1 C 84 % 1025,8 hPa 0,0 l/m 0,0 km/h SO 9,5 C 12,1 C 0,0 km/h
07.08.2016 04:00 11,7 C 84 % 1025,7 hPa 0,0 l/m 0,0 km/h O 9,1 C 11,7 C 0,0 km/h
07.08.2016 05:00 11,4 C 84 % 1025,9 hPa 0,0 l/m 0,0 km/h SO 8,8 C 11,4 C 0,0 km/h
07.08.2016 06:00 11,5 C 84 % 1025,9 hPa 0,0 l/m 0,0 km/h SO 8,9 C 11,5 C 0,0 km/h
07.08.2016 07:00 17,3 C 78 % 1026,2 hPa 0,0 l/m 0,0 km/h W-NW 13,4 C 17,3 C 0,0 km/h
07.08.2016 08:00 24,6 C 58 % 1026,7 hPa 0,0 l/m 0,0 km/h W 15,8 C 24,6 C 0,0 km/h
07.08.2016 09:00 26,1 C 54 % 1026,5 hPa 0,0 l/m 0,0 km/h W 16,0 C 26,1 C 0,0 km/h
07.08.2016 10:00 26,4 C 53 % 1026,3 hPa 0,0 l/m 0,0 km/h W-NW 16,0 C 26,4 C 0,0 km/h
07.08.2016 11:00 26,3 C 54 % 1025,9 hPa 0,0 l/m 0,0 km/h W-NW 16,2 C 26,3 C 0,0 km/h
07.08.2016 12:00 27,7 C 50 % 1025,4 hPa 0,0 l/m 0,0 km/h N-NO 16,3 C 27,7 C 0,0 km/h
07.08.2016 13:00 28,4 C 48 % 1024,7 hPa 0,0 l/m 0,6 km/h N-NO 16,3 C 28,4 C 0,4 km/h
07.08.2016 14:00 29,9 C 45 % 1024,0 hPa 0,0 l/m 0,0 km/h W-NW 16,7 C 29,9 C 0,0 km/h
07.08.2016 15:00 29,7 C 44 % 1023,5 hPa 0,0 l/m 0,0 km/h N-NO 16,1 C 29,7 C 0,0 km/h
07.08.2016 16:00 32,1 C 39 % 1022,8 hPa 0,0 l/m 0,0 km/h N-NW 16,4 C 32,1 C 0,0 km/h
07.08.2016 17:00 33,6 C 36 % 1022,5 hPa 0,0 l/m 0,0 km/h W-NW 16,4 C 33,6 C 0,0 km/h
07.08.2016 18:00 33,5 C 35 % 1022,2 hPa 0,0 l/m 0,0 km/h W 15,9 C 33,5 C 0,0 km/h
07.08.2016 19:00 25,9 C 47 % 1022,0 hPa 0,0 l/m 0,0 km/h W 13,7 C 25,9 C 0,0 km/h
07.08.2016 20:00 20,9 C 63 % 1022,0 hPa 0,0 l/m 0,0 km/h W 13,6 C 20,9 C 0,0 km/h
07.08.2016 21:00 18,2 C 70 % 1022,2 hPa 0,0 l/m 0,0 km/h S-SO 12,6 C 18,2 C 0,0 km/h
07.08.2016 22:00 17,0 C 75 % 1022,0 hPa 0,0 l/m 0,0 km/h NO 12,5 C 17,0 C 0,0 km/h
07.08.2016 23:00 16,1 C 80 % 1021,7 hPa 0,0 l/m 0,0 km/h SO 12,6 C 16,1 C 0,0 km/h
Min-Datum _ 06.08.16 07.08.16 04.08.16 - 02.08.16 - 06.08.16 06.08.16 02.08.16
_ Min-Zeit 05:56 18:56 15:56 - 03:56 - 07:56 05:56 03:56
Minimum _ 10,7 C 35 % 1009,3 hPa - 0,0 km/h - 6,4 C 10,7 C 0,0 km/h
Max-Datum _ 07.08.16 04.08.16 07.08.16 04.08.16 03.08.16 - 03.08.16 07.08.16 03.08.16
_ Max-Zeit 17:56 05:56 08:56 18:56 11:56 - 09:56 17:56 11:56
Maximum _ 33,6 C 84 % 1026,7 hPa 3,1 l/m 24,0 km/h
SW
- 17,8 C 33,6 C 13,3 km/h
SW
Durchschnitt _ 19,8 C 69 % 1017,8 hPa #19,7 l/m 2,0 km/h O-SO 13,3 C 19,7 C 1,1 km/h
www.sexauwetter.de